sensor_id;sensor_type;location;lat;lon;timestamp;P1;durP1;ratioP1;P2;durP2;ratioP2
5912;SDS011;2982;42.684;23.356;2023-04-25T00:01:32;3.63;;;3.33;;
5912;SDS011;2982;42.684;23.356;2023-04-25T00:03:57;3.03;;;2.83;;
5912;SDS011;2982;42.684;23.356;2023-04-25T00:06:22;3.63;;;3.42;;
5912;SDS011;2982;42.684;23.356;2023-04-25T00:08:48;3.58;;;3.38;;
5912;SDS011;2982;42.684;23.356;2023-04-25T00:11:13;3.85;;;3.55;;
5912;SDS011;2982;42.684;23.356;2023-04-25T00:13:38;3.83;;;3.53;;
5912;SDS011;2982;42.684;23.356;2023-04-25T00:16:03;4.38;;;4.07;;
5912;SDS011;2982;42.684;23.356;2023-04-25T00:18:29;3.42;;;3.22;;
5912;SDS011;2982;42.684;23.356;2023-04-25T00:20:55;4.15;;;3.65;;
5912;SDS011;2982;42.684;23.356;2023-04-25T00:23:20;4.32;;;3.92;;
5912;SDS011;2982;42.684;23.356;2023-04-25T00:25:46;4.00;;;3.65;;
5912;SDS011;2982;42.684;23.356;2023-04-25T00:28:13;4.50;;;4.00;;
5912;SDS011;2982;42.684;23.356;2023-04-25T00:30:39;4.90;;;4.50;;
5912;SDS011;2982;42.684;23.356;2023-04-25T00:33:05;4.45;;;4.07;;
5912;SDS011;2982;42.684;23.356;2023-04-25T00:35:30;4.82;;;4.38;;
5912;SDS011;2982;42.684;23.356;2023-04-25T00:37:56;3.97;;;3.70;;
5912;SDS011;2982;42.684;23.356;2023-04-25T00:40:21;5.40;;;3.97;;
5912;SDS011;2982;42.684;23.356;2023-04-25T00:42:46;4.80;;;4.40;;
5912;SDS011;2982;42.684;23.356;2023-04-25T00:45:13;4.43;;;4.13;;
5912;SDS011;2982;42.684;23.356;2023-04-25T00:47:39;4.63;;;4.22;;
5912;SDS011;2982;42.684;23.356;2023-04-25T00:50:05;4.88;;;4.57;;
5912;SDS011;2982;42.684;23.356;2023-04-25T00:52:31;3.67;;;3.47;;
5912;SDS011;2982;42.684;23.356;2023-04-25T00:54:56;3.28;;;3.08;;
5912;SDS011;2982;42.684;23.356;2023-04-25T00:57:21;3.50;;;3.20;;
5912;SDS011;2982;42.684;23.356;2023-04-25T00:59:46;4.00;;;3.00;;
5912;SDS011;2982;42.684;23.356;2023-04-25T01:02:12;3.80;;;3.60;;
5912;SDS011;2982;42.684;23.356;2023-04-25T01:04:38;3.80;;;3.60;;
5912;SDS011;2982;42.684;23.356;2023-04-25T01:07:04;3.72;;;3.53;;
5912;SDS011;2982;42.684;23.356;2023-04-25T01:09:30;3.92;;;3.72;;
5912;SDS011;2982;42.684;23.356;2023-04-25T01:11:55;4.93;;;4.07;;
5912;SDS011;2982;42.684;23.356;2023-04-25T01:14:20;3.85;;;3.65;;
5912;SDS011;2982;42.684;23.356;2023-04-25T01:16:46;3.95;;;3.70;;
5912;SDS011;2982;42.684;23.356;2023-04-25T01:19:11;3.72;;;3.47;;
5912;SDS011;2982;42.684;23.356;2023-04-25T01:21:41;3.83;;;3.53;;
5912;SDS011;2982;42.684;23.356;2023-04-25T01:24:06;4.18;;;3.88;;
5912;SDS011;2982;42.684;23.356;2023-04-25T01:26:31;3.42;;;3.22;;
5912;SDS011;2982;42.684;23.356;2023-04-25T01:28:58;4.57;;;4.28;;
5912;SDS011;2982;42.684;23.356;2023-04-25T01:31:24;3.95;;;3.75;;
5912;SDS011;2982;42.684;23.356;2023-04-25T01:33:51;4.57;;;4.13;;
5912;SDS011;2982;42.684;23.356;2023-04-25T01:36:17;4.00;;;3.65;;
5912;SDS011;2982;42.684;23.356;2023-04-25T01:38:42;4.20;;;3.90;;
5912;SDS011;2982;42.684;23.356;2023-04-25T01:41:08;3.80;;;3.50;;
5912;SDS011;2982;42.684;23.356;2023-04-25T01:43:34;4.80;;;4.50;;
5912;SDS011;2982;42.684;23.356;2023-04-25T01:45:59;4.60;;;4.22;;
5912;SDS011;2982;42.684;23.356;2023-04-25T01:48:25;5.07;;;4.68;;
5912;SDS011;2982;42.684;23.356;2023-04-25T01:50:50;4.47;;;4.18;;
5912;SDS011;2982;42.684;23.356;2023-04-25T01:53:15;4.15;;;3.85;;
5912;SDS011;2982;42.684;23.356;2023-04-25T01:55:41;4.30;;;3.90;;
5912;SDS011;2982;42.684;23.356;2023-04-25T01:58:06;3.83;;;3.55;;
5912;SDS011;2982;42.684;23.356;2023-04-25T02:00:31;4.50;;;4.20;;
5912;SDS011;2982;42.684;23.356;2023-04-25T02:03:00;4.97;;;4.50;;
5912;SDS011;2982;42.684;23.356;2023-04-25T02:05:25;3.78;;;3.53;;
5912;SDS011;2982;42.684;23.356;2023-04-25T02:07:50;3.95;;;3.65;;
5912;SDS011;2982;42.684;23.356;2023-04-25T02:10:16;4.55;;;4.15;;
5912;SDS011;2982;42.684;23.356;2023-04-25T02:12:41;4.90;;;4.30;;
5912;SDS011;2982;42.684;23.356;2023-04-25T02:15:06;4.85;;;3.92;;
5912;SDS011;2982;42.684;23.356;2023-04-25T02:17:32;4.75;;;4.40;;
5912;SDS011;2982;42.684;23.356;2023-04-25T02:19:57;5.30;;;4.90;;
5912;SDS011;2982;42.684;23.356;2023-04-25T02:22:22;5.25;;;4.95;;
5912;SDS011;2982;42.684;23.356;2023-04-25T02:24:48;4.90;;;4.40;;
5912;SDS011;2982;42.684;23.356;2023-04-25T02:27:13;5.00;;;4.60;;
5912;SDS011;2982;42.684;23.356;2023-04-25T02:29:38;5.75;;;5.35;;
5912;SDS011;2982;42.684;23.356;2023-04-25T02:32:04;5.25;;;4.85;;
5912;SDS011;2982;42.684;23.356;2023-04-25T02:34:29;5.10;;;4.70;;
5912;SDS011;2982;42.684;23.356;2023-04-25T02:36:54;5.90;;;5.40;;
5912;SDS011;2982;42.684;23.356;2023-04-25T02:39:20;4.78;;;4.43;;
5912;SDS011;2982;42.684;23.356;2023-04-25T02:41:45;5.38;;;4.97;;
5912;SDS011;2982;42.684;23.356;2023-04-25T02:44:10;6.13;;;5.13;;
5912;SDS011;2982;42.684;23.356;2023-04-25T02:46:35;5.70;;;5.30;;
5912;SDS011;2982;42.684;23.356;2023-04-25T02:49:01;5.30;;;4.80;;
5912;SDS011;2982;42.684;23.356;2023-04-25T02:51:26;6.20;;;5.03;;
5912;SDS011;2982;42.684;23.356;2023-04-25T02:53:51;5.85;;;5.32;;
5912;SDS011;2982;42.684;23.356;2023-04-25T02:56:17;6.07;;;5.47;;
5912;SDS011;2982;42.684;23.356;2023-04-25T02:58:42;5.50;;;5.10;;
5912;SDS011;2982;42.684;23.356;2023-04-25T03:01:07;5.50;;;5.10;;
5912;SDS011;2982;42.684;23.356;2023-04-25T03:03:33;4.65;;;4.35;;
5912;SDS011;2982;42.684;23.356;2023-04-25T03:05:58;5.82;;;5.32;;
5912;SDS011;2982;42.684;23.356;2023-04-25T03:08:23;7.40;;;5.88;;
5912;SDS011;2982;42.684;23.356;2023-04-25T03:10:48;6.72;;;5.07;;
5912;SDS011;2982;42.684;23.356;2023-04-25T03:13:14;5.40;;;5.00;;
5912;SDS011;2982;42.684;23.356;2023-04-25T03:15:39;4.90;;;4.60;;
5912;SDS011;2982;42.684;23.356;2023-04-25T03:18:04;5.20;;;4.72;;
5912;SDS011;2982;42.684;23.356;2023-04-25T03:20:29;6.28;;;5.70;;
5912;SDS011;2982;42.684;23.356;2023-04-25T03:22:55;5.40;;;4.97;;
5912;SDS011;2982;42.684;23.356;2023-04-25T03:25:20;6.45;;;5.82;;
5912;SDS011;2982;42.684;23.356;2023-04-25T03:27:45;5.68;;;5.18;;
5912;SDS011;2982;42.684;23.356;2023-04-25T03:30:11;5.95;;;5.30;;
5912;SDS011;2982;42.684;23.356;2023-04-25T03:32:36;6.45;;;5.85;;
5912;SDS011;2982;42.684;23.356;2023-04-25T03:35:02;6.80;;;6.28;;
5912;SDS011;2982;42.684;23.356;2023-04-25T03:37:27;7.30;;;6.80;;
5912;SDS011;2982;42.684;23.356;2023-04-25T03:39:52;6.68;;;6.18;;
5912;SDS011;2982;42.684;23.356;2023-04-25T03:42:18;6.78;;;6.03;;
5912;SDS011;2982;42.684;23.356;2023-04-25T03:44:43;7.43;;;6.65;;
5912;SDS011;2982;42.684;23.356;2023-04-25T03:47:08;7.53;;;6.95;;
5912;SDS011;2982;42.684;23.356;2023-04-25T03:49:34;7.45;;;6.93;;
5912;SDS011;2982;42.684;23.356;2023-04-25T03:51:59;7.80;;;7.20;;
5912;SDS011;2982;42.684;23.356;2023-04-25T03:54:24;8.50;;;7.82;;
5912;SDS011;2982;42.684;23.356;2023-04-25T03:56:50;6.95;;;6.45;;
5912;SDS011;2982;42.684;23.356;2023-04-25T03:59:15;8.55;;;7.78;;
5912;SDS011;2982;42.684;23.356;2023-04-25T04:01:40;8.70;;;7.97;;
5912;SDS011;2982;42.684;23.356;2023-04-25T04:04:06;9.38;;;8.55;;
5912;SDS011;2982;42.684;23.356;2023-04-25T04:06:31;10.05;;;9.18;;
5912;SDS011;2982;42.684;23.356;2023-04-25T04:08:56;9.05;;;8.18;;
5912;SDS011;2982;42.684;23.356;2023-04-25T04:11:21;8.75;;;7.95;;
5912;SDS011;2982;42.684;23.356;2023-04-25T04:13:47;8.23;;;7.53;;
5912;SDS011;2982;42.684;23.356;2023-04-25T04:16:12;8.40;;;7.70;;
5912;SDS011;2982;42.684;23.356;2023-04-25T04:18:37;9.00;;;8.20;;
5912;SDS011;2982;42.684;23.356;2023-04-25T04:21:02;9.60;;;8.85;;
5912;SDS011;2982;42.684;23.356;2023-04-25T04:23:28;8.52;;;7.82;;
5912;SDS011;2982;42.684;23.356;2023-04-25T04:25:53;8.80;;;8.10;;
5912;SDS011;2982;42.684;23.356;2023-04-25T04:28:20;8.73;;;8.02;;
5912;SDS011;2982;42.684;23.356;2023-04-25T04:30:45;7.03;;;6.40;;
5912;SDS011;2982;42.684;23.356;2023-04-25T04:33:10;7.00;;;6.47;;
5912;SDS011;2982;42.684;23.356;2023-04-25T04:35:36;8.00;;;7.25;;
5912;SDS011;2982;42.684;23.356;2023-04-25T04:38:01;10.40;;;9.40;;
5912;SDS011;2982;42.684;23.356;2023-04-25T04:40:26;9.48;;;8.68;;
5912;SDS011;2982;42.684;23.356;2023-04-25T04:42:52;9.73;;;8.95;;
5912;SDS011;2982;42.684;23.356;2023-04-25T04:45:17;13.02;;;10.68;;
5912;SDS011;2982;42.684;23.356;2023-04-25T04:47:42;10.27;;;9.48;;
5912;SDS011;2982;42.684;23.356;2023-04-25T04:50:08;10.90;;;10.10;;
5912;SDS011;2982;42.684;23.356;2023-04-25T04:52:35;10.57;;;9.77;;
5912;SDS011;2982;42.684;23.356;2023-04-25T04:55:02;11.02;;;10.13;;
5912;SDS011;2982;42.684;23.356;2023-04-25T04:57:28;11.05;;;10.23;;
5912;SDS011;2982;42.684;23.356;2023-04-25T04:59:53;10.90;;;9.95;;
5912;SDS011;2982;42.684;23.356;2023-04-25T05:02:19;12.27;;;11.07;;
5912;SDS011;2982;42.684;23.356;2023-04-25T05:04:44;11.80;;;10.52;;
5912;SDS011;2982;42.684;23.356;2023-04-25T05:07:09;14.25;;;11.77;;
5912;SDS011;2982;42.684;23.356;2023-04-25T05:09:34;11.65;;;10.57;;
5912;SDS011;2982;42.684;23.356;2023-04-25T05:12:00;10.82;;;9.82;;
5912;SDS011;2982;42.684;23.356;2023-04-25T05:14:25;10.52;;;9.48;;
5912;SDS011;2982;42.684;23.356;2023-04-25T05:16:50;9.65;;;8.70;;
5912;SDS011;2982;42.684;23.356;2023-04-25T05:19:16;9.70;;;8.90;;
5912;SDS011;2982;42.684;23.356;2023-04-25T05:21:41;10.23;;;9.30;;
5912;SDS011;2982;42.684;23.356;2023-04-25T05:24:06;9.43;;;8.70;;
5912;SDS011;2982;42.684;23.356;2023-04-25T05:26:32;10.32;;;9.30;;
5912;SDS011;2982;42.684;23.356;2023-04-25T05:28:57;17.35;;;9.02;;
5912;SDS011;2982;42.684;23.356;2023-04-25T05:31:23;10.80;;;9.88;;
5912;SDS011;2982;42.684;23.356;2023-04-25T05:33:48;9.88;;;9.05;;
5912;SDS011;2982;42.684;23.356;2023-04-25T05:36:13;10.43;;;9.63;;
5912;SDS011;2982;42.684;23.356;2023-04-25T05:38:39;10.35;;;9.65;;
5912;SDS011;2982;42.684;23.356;2023-04-25T05:41:04;9.45;;;8.75;;
5912;SDS011;2982;42.684;23.356;2023-04-25T05:43:29;6.38;;;5.93;;
5912;SDS011;2982;42.684;23.356;2023-04-25T05:45:54;7.55;;;6.03;;
5912;SDS011;2982;42.684;23.356;2023-04-25T05:48:20;6.82;;;4.85;;
5912;SDS011;2982;42.684;23.356;2023-04-25T05:50:45;5.82;;;5.43;;
5912;SDS011;2982;42.684;23.356;2023-04-25T05:53:10;7.88;;;5.65;;
5912;SDS011;2982;42.684;23.356;2023-04-25T05:55:36;5.75;;;5.28;;
5912;SDS011;2982;42.684;23.356;2023-04-25T05:58:01;6.50;;;6.00;;
5912;SDS011;2982;42.684;23.356;2023-04-25T06:00:26;6.05;;;4.85;;
5912;SDS011;2982;42.684;23.356;2023-04-25T06:02:51;4.90;;;4.45;;
5912;SDS011;2982;42.684;23.356;2023-04-25T06:05:17;5.15;;;4.80;;
5912;SDS011;2982;42.684;23.356;2023-04-25T06:07:42;5.95;;;5.43;;
5912;SDS011;2982;42.684;23.356;2023-04-25T06:10:07;8.68;;;7.90;;
5912;SDS011;2982;42.684;23.356;2023-04-25T06:12:33;6.57;;;6.07;;
5912;SDS011;2982;42.684;23.356;2023-04-25T06:14:59;6.20;;;5.80;;
5912;SDS011;2982;42.684;23.356;2023-04-25T06:17:24;5.95;;;5.55;;
5912;SDS011;2982;42.684;23.356;2023-04-25T06:19:50;6.03;;;5.57;;
5912;SDS011;2982;42.684;23.356;2023-04-25T06:22:15;8.38;;;7.63;;
5912;SDS011;2982;42.684;23.356;2023-04-25T06:24:40;6.32;;;5.82;;
5912;SDS011;2982;42.684;23.356;2023-04-25T06:27:05;6.00;;;5.25;;
5912;SDS011;2982;42.684;23.356;2023-04-25T06:29:31;5.10;;;4.60;;
5912;SDS011;2982;42.684;23.356;2023-04-25T06:31:56;4.60;;;4.20;;
5912;SDS011;2982;42.684;23.356;2023-04-25T06:34:21;4.25;;;4.00;;
5912;SDS011;2982;42.684;23.356;2023-04-25T06:36:46;4.80;;;4.40;;
5912;SDS011;2982;42.684;23.356;2023-04-25T06:39:12;4.13;;;3.83;;
5912;SDS011;2982;42.684;23.356;2023-04-25T06:41:37;4.47;;;4.18;;
5912;SDS011;2982;42.684;23.356;2023-04-25T06:44:02;4.22;;;4.03;;
5912;SDS011;2982;42.684;23.356;2023-04-25T06:46:28;6.57;;;4.30;;
5912;SDS011;2982;42.684;23.356;2023-04-25T06:48:53;4.47;;;4.18;;
5912;SDS011;2982;42.684;23.356;2023-04-25T06:51:18;4.00;;;3.70;;
5912;SDS011;2982;42.684;23.356;2023-04-25T06:53:44;4.40;;;4.00;;
5912;SDS011;2982;42.684;23.356;2023-04-25T06:56:09;4.43;;;4.10;;
5912;SDS011;2982;42.684;23.356;2023-04-25T06:58:34;4.70;;;4.20;;
5912;SDS011;2982;42.684;23.356;2023-04-25T07:01:00;3.88;;;3.67;;
5912;SDS011;2982;42.684;23.356;2023-04-25T07:03:25;4.25;;;3.97;;
5912;SDS011;2982;42.684;23.356;2023-04-25T07:05:50;5.00;;;4.68;;
5912;SDS011;2982;42.684;23.356;2023-04-25T07:08:16;8.77;;;7.82;;
5912;SDS011;2982;42.684;23.356;2023-04-25T07:10:41;6.40;;;5.10;;
5912;SDS011;2982;42.684;23.356;2023-04-25T07:13:07;5.43;;;4.90;;
5912;SDS011;2982;42.684;23.356;2023-04-25T07:15:32;6.22;;;4.38;;
5912;SDS011;2982;42.684;23.356;2023-04-25T07:17:58;4.28;;;3.88;;
5912;SDS011;2982;42.684;23.356;2023-04-25T07:20:23;4.15;;;3.83;;
5912;SDS011;2982;42.684;23.356;2023-04-25T07:22:48;5.10;;;4.70;;
5912;SDS011;2982;42.684;23.356;2023-04-25T07:25:14;25.95;;;15.93;;
5912;SDS011;2982;42.684;23.356;2023-04-25T07:27:39;6.80;;;6.20;;
5912;SDS011;2982;42.684;23.356;2023-04-25T07:30:05;5.50;;;4.00;;
5912;SDS011;2982;42.684;23.356;2023-04-25T07:32:30;4.95;;;4.65;;
5912;SDS011;2982;42.684;23.356;2023-04-25T07:34:56;6.32;;;4.95;;
5912;SDS011;2982;42.684;23.356;2023-04-25T07:37:21;5.35;;;4.80;;
5912;SDS011;2982;42.684;23.356;2023-04-25T07:39:46;5.95;;;4.97;;
5912;SDS011;2982;42.684;23.356;2023-04-25T07:42:12;4.55;;;4.30;;
5912;SDS011;2982;42.684;23.356;2023-04-25T07:44:38;4.90;;;4.38;;
5912;SDS011;2982;42.684;23.356;2023-04-25T07:47:03;5.40;;;4.90;;
5912;SDS011;2982;42.684;23.356;2023-04-25T07:49:30;4.95;;;4.38;;
5912;SDS011;2982;42.684;23.356;2023-04-25T07:51:55;4.57;;;4.25;;
5912;SDS011;2982;42.684;23.356;2023-04-25T07:54:20;4.32;;;4.03;;
5912;SDS011;2982;42.684;23.356;2023-04-25T07:56:45;6.53;;;4.35;;
5912;SDS011;2982;42.684;23.356;2023-04-25T07:59:11;7.18;;;6.53;;
5912;SDS011;2982;42.684;23.356;2023-04-25T08:01:36;5.30;;;4.35;;
5912;SDS011;2982;42.684;23.356;2023-04-25T08:04:01;6.57;;;5.38;;
5912;SDS011;2982;42.684;23.356;2023-04-25T08:06:26;3.72;;;3.47;;
5912;SDS011;2982;42.684;23.356;2023-04-25T08:08:52;4.10;;;3.67;;
5912;SDS011;2982;42.684;23.356;2023-04-25T08:11:17;4.63;;;3.15;;
5912;SDS011;2982;42.684;23.356;2023-04-25T08:13:42;5.78;;;3.42;;
5912;SDS011;2982;42.684;23.356;2023-04-25T08:16:08;5.32;;;3.50;;
5912;SDS011;2982;42.684;23.356;2023-04-25T08:18:33;4.72;;;3.10;;
5912;SDS011;2982;42.684;23.356;2023-04-25T08:20:58;5.47;;;4.32;;
5912;SDS011;2982;42.684;23.356;2023-04-25T08:23:23;5.47;;;3.45;;
5912;SDS011;2982;42.684;23.356;2023-04-25T08:25:49;4.10;;;3.80;;
5912;SDS011;2982;42.684;23.356;2023-04-25T08:28:14;3.30;;;2.80;;
5912;SDS011;2982;42.684;23.356;2023-04-25T08:30:39;2.88;;;2.67;;
5912;SDS011;2982;42.684;23.356;2023-04-25T08:33:04;2.00;;;1.90;;
5912;SDS011;2982;42.684;23.356;2023-04-25T08:35:30;3.42;;;1.77;;
5912;SDS011;2982;42.684;23.356;2023-04-25T08:37:55;7.05;;;2.90;;
5912;SDS011;2982;42.684;23.356;2023-04-25T08:40:21;3.67;;;2.60;;
5912;SDS011;2982;42.684;23.356;2023-04-25T08:42:47;3.00;;;2.40;;
5912;SDS011;2982;42.684;23.356;2023-04-25T08:45:15;3.50;;;3.20;;
5912;SDS011;2982;42.684;23.356;2023-04-25T08:47:40;7.50;;;5.03;;
5912;SDS011;2982;42.684;23.356;2023-04-25T08:50:08;4.20;;;3.35;;
5912;SDS011;2982;42.684;23.356;2023-04-25T08:52:37;8.25;;;6.28;;
5912;SDS011;2982;42.684;23.356;2023-04-25T08:55:08;6.55;;;6.00;;
5912;SDS011;2982;42.684;23.356;2023-04-25T08:57:34;9.23;;;6.90;;
5912;SDS011;2982;42.684;23.356;2023-04-25T09:00:00;7.68;;;7.05;;
5912;SDS011;2982;42.684;23.356;2023-04-25T09:02:26;11.15;;;8.13;;
5912;SDS011;2982;42.684;23.356;2023-04-25T09:04:52;9.07;;;8.20;;
5912;SDS011;2982;42.684;23.356;2023-04-25T09:07:18;7.70;;;6.93;;
5912;SDS011;2982;42.684;23.356;2023-04-25T09:09:44;7.75;;;7.05;;
5912;SDS011;2982;42.684;23.356;2023-04-25T09:12:09;4.93;;;4.53;;
5912;SDS011;2982;42.684;23.356;2023-04-25T09:14:35;5.80;;;5.25;;
5912;SDS011;2982;42.684;23.356;2023-04-25T09:17:01;6.90;;;5.90;;
5912;SDS011;2982;42.684;23.356;2023-04-25T09:19:29;6.20;;;3.97;;
5912;SDS011;2982;42.684;23.356;2023-04-25T09:21:56;6.30;;;3.88;;
5912;SDS011;2982;42.684;23.356;2023-04-25T09:27:11;4.93;;;4.38;;
5912;SDS011;2982;42.684;23.356;2023-04-25T09:29:39;3.50;;;3.20;;
5912;SDS011;2982;42.684;23.356;2023-04-25T09:32:16;3.25;;;2.75;;
5912;SDS011;2982;42.684;23.356;2023-04-25T09:34:41;3.75;;;3.45;;
5912;SDS011;2982;42.684;23.356;2023-04-25T09:37:09;7.35;;;4.65;;
5912;SDS011;2982;42.684;23.356;2023-04-25T09:39:35;5.15;;;4.70;;
5912;SDS011;2982;42.684;23.356;2023-04-25T09:42:00;6.40;;;5.28;;
5912;SDS011;2982;42.684;23.356;2023-04-25T09:44:28;4.43;;;4.03;;
5912;SDS011;2982;42.684;23.356;2023-04-25T09:46:53;4.78;;;4.45;;
5912;SDS011;2982;42.684;23.356;2023-04-25T09:49:19;5.60;;;4.75;;
5912;SDS011;2982;42.684;23.356;2023-04-25T09:51:55;5.30;;;3.58;;
5912;SDS011;2982;42.684;23.356;2023-04-25T09:54:24;4.85;;;3.20;;
5912;SDS011;2982;42.684;23.356;2023-04-25T09:56:51;4.20;;;3.17;;
5912;SDS011;2982;42.684;23.356;2023-04-25T09:59:18;5.35;;;3.45;;
5912;SDS011;2982;42.684;23.356;2023-04-25T10:01:45;5.90;;;3.50;;
5912;SDS011;2982;42.684;23.356;2023-04-25T10:04:11;8.43;;;4.32;;
5912;SDS011;2982;42.684;23.356;2023-04-25T10:06:37;3.65;;;3.35;;
5912;SDS011;2982;42.684;23.356;2023-04-25T10:09:04;4.10;;;3.70;;
5912;SDS011;2982;42.684;23.356;2023-04-25T10:11:31;4.85;;;3.70;;
5912;SDS011;2982;42.684;23.356;2023-04-25T10:13:57;5.68;;;3.97;;
5912;SDS011;2982;42.684;23.356;2023-04-25T10:16:23;4.20;;;3.80;;
5912;SDS011;2982;42.684;23.356;2023-04-25T10:18:49;11.05;;;10.02;;
5912;SDS011;2982;42.684;23.356;2023-04-25T10:21:15;6.63;;;6.03;;
5912;SDS011;2982;42.684;23.356;2023-04-25T10:23:41;7.63;;;3.67;;
5912;SDS011;2982;42.684;23.356;2023-04-25T10:26:07;7.60;;;4.32;;
5912;SDS011;2982;42.684;23.356;2023-04-25T10:28:54;7.18;;;5.13;;
5912;SDS011;2982;42.684;23.356;2023-04-25T10:31:31;1.10;;;1.00;;
5912;SDS011;2982;42.684;23.356;2023-04-25T10:33:57;1.13;;;1.08;;
5912;SDS011;2982;42.684;23.356;2023-04-25T10:36:23;0.85;;;0.60;;
5912;SDS011;2982;42.684;23.356;2023-04-25T10:38:49;0.77;;;0.77;;
5912;SDS011;2982;42.684;23.356;2023-04-25T10:41:17;1.67;;;0.82;;
5912;SDS011;2982;42.684;23.356;2023-04-25T10:43:44;1.58;;;1.20;;
5912;SDS011;2982;42.684;23.356;2023-04-25T10:46:15;3.90;;;1.10;;
5912;SDS011;2982;42.684;23.356;2023-04-25T10:48:54;0.70;;;0.70;;
5912;SDS011;2982;42.684;23.356;2023-04-25T10:57:37;1.13;;;0.73;;
5912;SDS011;2982;42.684;23.356;2023-04-25T11:02:45;1.52;;;0.98;;
5912;SDS011;2982;42.684;23.356;2023-04-25T11:05:22;1.25;;;0.88;;
5912;SDS011;2982;42.684;23.356;2023-04-25T11:07:56;1.42;;;0.70;;
5912;SDS011;2982;42.684;23.356;2023-04-25T11:10:32;2.10;;;0.70;;
5912;SDS011;2982;42.684;23.356;2023-04-25T11:12:58;2.10;;;0.93;;
5912;SDS011;2982;42.684;23.356;2023-04-25T11:15:23;2.20;;;1.05;;
5912;SDS011;2982;42.684;23.356;2023-04-25T11:17:53;1.23;;;0.73;;
5912;SDS011;2982;42.684;23.356;2023-04-25T11:20:19;4.05;;;0.98;;
5912;SDS011;2982;42.684;23.356;2023-04-25T11:22:45;1.83;;;1.00;;
5912;SDS011;2982;42.684;23.356;2023-04-25T11:25:11;1.50;;;1.10;;
5912;SDS011;2982;42.684;23.356;2023-04-25T11:30:16;2.67;;;1.40;;
5912;SDS011;2982;42.684;23.356;2023-04-25T11:32:42;6.50;;;1.80;;
5912;SDS011;2982;42.684;23.356;2023-04-25T11:35:08;3.95;;;1.30;;
5912;SDS011;2982;42.684;23.356;2023-04-25T11:37:33;4.07;;;1.38;;
5912;SDS011;2982;42.684;23.356;2023-04-25T11:39:59;3.90;;;1.60;;
5912;SDS011;2982;42.684;23.356;2023-04-25T11:42:25;2.33;;;1.40;;
5912;SDS011;2982;42.684;23.356;2023-04-25T11:44:51;3.17;;;1.63;;
5912;SDS011;2982;42.684;23.356;2023-04-25T11:47:16;4.93;;;1.65;;
5912;SDS011;2982;42.684;23.356;2023-04-25T11:49:42;2.35;;;1.13;;
5912;SDS011;2982;42.684;23.356;2023-04-25T11:52:07;0.52;;;0.52;;
5912;SDS011;2982;42.684;23.356;2023-04-25T11:54:35;0.50;;;0.50;;
5912;SDS011;2982;42.684;23.356;2023-04-25T11:57:00;0.70;;;0.70;;
5912;SDS011;2982;42.684;23.356;2023-04-25T11:59:26;0.70;;;0.70;;
5912;SDS011;2982;42.684;23.356;2023-04-25T12:01:51;1.25;;;0.57;;
5912;SDS011;2982;42.684;23.356;2023-04-25T12:06:44;0.70;;;0.70;;
5912;SDS011;2982;42.684;23.356;2023-04-25T12:09:11;0.60;;;0.60;;
5912;SDS011;2982;42.684;23.356;2023-04-25T12:11:40;0.88;;;0.47;;
5912;SDS011;2982;42.684;23.356;2023-04-25T12:14:09;0.50;;;0.50;;
5912;SDS011;2982;42.684;23.356;2023-04-25T12:16:42;1.13;;;0.50;;
5912;SDS011;2982;42.684;23.356;2023-04-25T12:19:09;0.60;;;0.30;;
5912;SDS011;2982;42.684;23.356;2023-04-25T12:21:35;0.52;;;0.52;;
5912;SDS011;2982;42.684;23.356;2023-04-25T12:24:13;1.10;;;0.35;;
5912;SDS011;2982;42.684;23.356;2023-04-25T12:26:46;0.50;;;0.50;;
5912;SDS011;2982;42.684;23.356;2023-04-25T12:29:19;1.83;;;0.43;;
5912;SDS011;2982;42.684;23.356;2023-04-25T12:31:49;0.63;;;0.40;;
5912;SDS011;2982;42.684;23.356;2023-04-25T12:34:15;1.33;;;0.40;;
5912;SDS011;2982;42.684;23.356;2023-04-25T12:36:40;0.50;;;0.50;;
5912;SDS011;2982;42.684;23.356;2023-04-25T12:39:06;2.00;;;0.77;;
5912;SDS011;2982;42.684;23.356;2023-04-25T12:41:31;2.03;;;1.15;;
5912;SDS011;2982;42.684;23.356;2023-04-25T12:43:56;2.20;;;1.02;;
5912;SDS011;2982;42.684;23.356;2023-04-25T12:46:21;4.15;;;0.90;;
5912;SDS011;2982;42.684;23.356;2023-04-25T12:48:47;4.95;;;1.08;;
5912;SDS011;2982;42.684;23.356;2023-04-25T12:51:12;3.15;;;0.60;;
5912;SDS011;2982;42.684;23.356;2023-04-25T12:53:37;1.13;;;0.93;;
5912;SDS011;2982;42.684;23.356;2023-04-25T12:56:03;1.38;;;0.80;;
5912;SDS011;2982;42.684;23.356;2023-04-25T12:58:28;2.80;;;1.10;;
5912;SDS011;2982;42.684;23.356;2023-04-25T13:00:54;1.23;;;1.10;;
5912;SDS011;2982;42.684;23.356;2023-04-25T13:03:19;0.80;;;0.57;;
5912;SDS011;2982;42.684;23.356;2023-04-25T13:05:44;1.67;;;0.70;;
5912;SDS011;2982;42.684;23.356;2023-04-25T13:08:09;5.50;;;1.60;;
5912;SDS011;2982;42.684;23.356;2023-04-25T13:10:35;1.65;;;1.20;;
5912;SDS011;2982;42.684;23.356;2023-04-25T13:13:00;1.80;;;1.13;;
5912;SDS011;2982;42.684;23.356;2023-04-25T13:15:26;1.58;;;1.30;;
5912;SDS011;2982;42.684;23.356;2023-04-25T13:17:51;2.08;;;1.70;;
5912;SDS011;2982;42.684;23.356;2023-04-25T13:20:17;1.38;;;1.23;;
5912;SDS011;2982;42.684;23.356;2023-04-25T13:22:42;2.70;;;1.40;;
5912;SDS011;2982;42.684;23.356;2023-04-25T13:25:07;2.53;;;1.40;;
5912;SDS011;2982;42.684;23.356;2023-04-25T13:27:34;1.58;;;1.48;;
5912;SDS011;2982;42.684;23.356;2023-04-25T13:30:00;3.05;;;2.08;;
5912;SDS011;2982;42.684;23.356;2023-04-25T13:32:25;2.40;;;1.30;;
5912;SDS011;2982;42.684;23.356;2023-04-25T13:34:51;2.38;;;1.98;;
5912;SDS011;2982;42.684;23.356;2023-04-25T13:37:16;2.13;;;1.83;;
5912;SDS011;2982;42.684;23.356;2023-04-25T13:39:42;2.83;;;1.67;;
5912;SDS011;2982;42.684;23.356;2023-04-25T13:42:07;1.80;;;1.70;;
5912;SDS011;2982;42.684;23.356;2023-04-25T13:44:32;1.83;;;1.73;;
5912;SDS011;2982;42.684;23.356;2023-04-25T13:46:57;2.92;;;1.67;;
5912;SDS011;2982;42.684;23.356;2023-04-25T13:49:23;3.58;;;1.50;;
5912;SDS011;2982;42.684;23.356;2023-04-25T13:51:48;5.97;;;1.83;;
5912;SDS011;2982;42.684;23.356;2023-04-25T13:54:13;2.60;;;2.40;;
5912;SDS011;2982;42.684;23.356;2023-04-25T13:56:39;3.80;;;2.30;;
5912;SDS011;2982;42.684;23.356;2023-04-25T13:59:04;2.45;;;1.73;;
5912;SDS011;2982;42.684;23.356;2023-04-25T14:01:29;2.15;;;1.95;;
5912;SDS011;2982;42.684;23.356;2023-04-25T14:03:54;3.05;;;2.00;;
5912;SDS011;2982;42.684;23.356;2023-04-25T14:06:20;3.10;;;2.80;;
5912;SDS011;2982;42.684;23.356;2023-04-25T14:08:45;5.13;;;2.33;;
5912;SDS011;2982;42.684;23.356;2023-04-25T14:11:10;5.35;;;2.33;;
5912;SDS011;2982;42.684;23.356;2023-04-25T14:13:35;1.75;;;1.65;;
5912;SDS011;2982;42.684;23.356;2023-04-25T14:16:01;1.70;;;1.60;;
5912;SDS011;2982;42.684;23.356;2023-04-25T14:18:26;1.58;;;1.48;;
5912;SDS011;2982;42.684;23.356;2023-04-25T14:20:51;1.65;;;1.50;;
5912;SDS011;2982;42.684;23.356;2023-04-25T14:23:17;4.35;;;1.50;;
5912;SDS011;2982;42.684;23.356;2023-04-25T14:25:42;1.35;;;1.25;;
5912;SDS011;2982;42.684;23.356;2023-04-25T14:28:07;0.98;;;0.88;;
5912;SDS011;2982;42.684;23.356;2023-04-25T14:30:33;1.88;;;0.70;;
5912;SDS011;2982;42.684;23.356;2023-04-25T14:32:58;0.70;;;0.63;;
5912;SDS011;2982;42.684;23.356;2023-04-25T14:35:25;15.88;;;1.02;;
5912;SDS011;2982;42.684;23.356;2023-04-25T14:37:50;1.10;;;0.77;;
5912;SDS011;2982;42.684;23.356;2023-04-25T14:40:15;3.30;;;1.02;;
5912;SDS011;2982;42.684;23.356;2023-04-25T14:42:41;0.65;;;0.65;;
5912;SDS011;2982;42.684;23.356;2023-04-25T14:45:06;0.63;;;0.63;;
5912;SDS011;2982;42.684;23.356;2023-04-25T14:47:33;0.98;;;0.70;;
5912;SDS011;2982;42.684;23.356;2023-04-25T14:49:58;0.65;;;0.50;;
5912;SDS011;2982;42.684;23.356;2023-04-25T14:52:23;3.78;;;0.90;;
5912;SDS011;2982;42.684;23.356;2023-04-25T14:54:49;1.48;;;0.70;;
5912;SDS011;2982;42.684;23.356;2023-04-25T14:57:15;1.13;;;0.93;;
5912;SDS011;2982;42.684;23.356;2023-04-25T14:59:40;0.82;;;0.60;;
5912;SDS011;2982;42.684;23.356;2023-04-25T15:02:05;0.98;;;0.90;;
5912;SDS011;2982;42.684;23.356;2023-04-25T15:04:30;0.85;;;0.77;;
5912;SDS011;2982;42.684;23.356;2023-04-25T15:06:56;0.98;;;0.98;;
5912;SDS011;2982;42.684;23.356;2023-04-25T15:09:21;0.90;;;0.90;;